PWSweather.com
Personal Weather Stations
Station Observations
REBOX73
Petalia At Mount Pantokrator, CorfuGR 49081

Petalia At Mount PantokratorCorfuGR 49081

Lat: 39.747915, Lon: 19.841466

Elevation: 2132

Station Type: ws1080

http://pantokratoras-kerkyra.meteoclub.gr/

Latest ConditionsUpdated 11:45:01 PM GMT+01:01 Thursday, Jul 24, 2014
Currently Today's Max Today's Min Today's Average
Temperature 66.4°F19.1°C 77.7°F25.4°C 60.1°F15.6°C 68.1°F20.1°C
Dew Point 63.1°F17.3°C 72.9°F22.7°C 57.9°F14.4°C 63.2°F17.3°C
Winds 0.2 mph SSE0.3 kmh SSE 6.9 mph S11.1 kmh S - 2.3 mph 3.7 kmh
Wind Gusts 0.7 mph1.1 kmh 9.8 mph15.8 kmh - -
Humidity 89% 100% 57% 85%
Pressure 29.87 in1011.5 mb 29.89 in1012.2 mb 29.80 in1009.1 mb -
Hour Temp Dew Point Humidity Winds Wind Gusts Pressure Precip Precip Rate Daily Precip Total
11:45 PM 66.4°F19.1°C 63.1°F17.3°C 89% 0.2 mph SSE0.3 kmh SSE 0.7 mph1.1 kmh 29.87 in1011.5 mb 0.00 in0.0 mm 0.00 in/hr0.0 mm/hr 0.00 in0.0 mm
11:30 PM 66.4°F19.1°C 63.1°F17.3°C 89% 1.3 mph SSW2.1 kmh SSW 2.2 mph3.5 kmh 29.88 in1011.9 mb 0.00 in0.0 mm 0.00 in/hr0.0 mm/hr 0.00 in0.0 mm
11:15 PM 66.0°F18.9°C 62.7°F17.1°C 89% 1.3 mph N2.1 kmh N 1.6 mph2.6 kmh 29.88 in1011.9 mb 0.00 in0.0 mm 0.00 in/hr0.0 mm/hr 0.00 in0.0 mm
11:00 PM 66.0°F18.9°C 62.7°F17.1°C 89% 1.0 mph N1.6 kmh N 1.6 mph2.6 kmh 29.88 in1011.9 mb 0.00 in0.0 mm 0.00 in/hr0.0 mm/hr 0.00 in0.0 mm
10:45 PM 65.7°F18.7°C 62.7°F17.1°C 90% 0.5 mph N0.8 kmh N 1.6 mph2.6 kmh 29.89 in1012.2 mb 0.00 in0.0 mm 0.00 in/hr0.0 mm/hr 0.00 in0.0 mm
10:30 PM 65.7°F18.7°C 62.4°F16.9°C 89% 0.4 mph N0.6 kmh N 1.6 mph2.6 kmh 29.88 in1011.9 mb 0.00 in0.0 mm 0.00 in/hr0.0 mm/hr 0.00 in0.0 mm
10:15 PM 64.4°F18.0°C 61.4°F16.3°C 90% 0.8 mph N1.3 kmh N 2.2 mph3.5 kmh 29.88 in1011.9 mb 0.00 in0.0 mm 0.00 in/hr0.0 mm/hr 0.00 in0.0 mm
10:00 PM 62.1°F16.7°C 59.1°F15.1°C 90% 0.1 mph E0.2 kmh E 0.7 mph1.1 kmh 29.88 in1011.9 mb 0.00 in0.0 mm 0.00 in/hr0.0 mm/hr 0.00 in0.0 mm
09:45 PM 65.3°F18.5°C 62.9°F17.2°C 92% 1.3 mph NNW2.1 kmh NNW 2.2 mph3.5 kmh 29.88 in1011.9 mb 0.00 in0.0 mm 0.00 in/hr0.0 mm/hr 0.00 in0.0 mm
09:30 PM 65.1°F18.4°C 63.7°F17.6°C 95% 0.3 mph NNW0.5 kmh NNW 1.6 mph2.6 kmh 29.88 in1011.9 mb 0.00 in0.0 mm 0.00 in/hr0.0 mm/hr 0.00 in0.0 mm
09:15 PM 65.8°F18.8°C 63.8°F17.7°C 93% 1.2 mph N1.9 kmh N 2.2 mph3.5 kmh 29.88 in1011.9 mb 0.00 in0.0 mm 0.00 in/hr0.0 mm/hr 0.00 in0.0 mm
09:00 PM 72.7°F22.6°C 69.6°F20.9°C 90% 1.2 mph NNW1.9 kmh NNW 1.6 mph2.6 kmh 29.88 in1011.9 mb 0.00 in0.0 mm 0.00 in/hr0.0 mm/hr 0.00 in0.0 mm
08:45 PM 67.3°F19.6°C 64.3°F17.9°C 90% 1.6 mph NW2.6 kmh NW 3.1 mph5.0 kmh 29.88 in1011.9 mb 0.00 in0.0 mm 0.00 in/hr0.0 mm/hr 0.00 in0.0 mm
08:30 PM 72.5°F22.5°C 70.1°F21.2°C 92% 0.7 mph NNW1.1 kmh NNW 1.6 mph2.6 kmh 29.88 in1011.9 mb 0.00 in0.0 mm 0.00 in/hr0.0 mm/hr 0.00 in0.0 mm
08:15 PM 66.9°F19.4°C 63.9°F17.7°C 90% 1.3 mph S2.1 kmh S 2.2 mph3.5 kmh 29.87 in1011.5 mb 0.00 in0.0 mm 0.00 in/hr0.0 mm/hr 0.00 in0.0 mm
08:00 PM 66.2°F19.0°C 63.5°F17.5°C 91% 0.6 mph ENE1.0 kmh ENE 1.6 mph2.6 kmh 29.87 in1011.5 mb 0.00 in0.0 mm 0.00 in/hr0.0 mm/hr 0.00 in0.0 mm
07:45 PM 62.1°F16.7°C 58.5°F14.7°C 88% 1.3 mph N2.1 kmh N 2.2 mph3.5 kmh 29.87 in1011.5 mb 0.00 in0.0 mm 0.00 in/hr0.0 mm/hr 0.00 in0.0 mm
07:30 PM 66.9°F19.4°C 63.6°F17.6°C 89% 0.7 mph NW1.1 kmh NW 1.6 mph2.6 kmh 29.86 in1011.2 mb 0.00 in0.0 mm 0.00 in/hr0.0 mm/hr 0.00 in0.0 mm
07:15 PM 68.2°F20.1°C 63.9°F17.7°C 86% 0.7 mph N1.1 kmh N 2.2 mph3.5 kmh 29.86 in1011.2 mb 0.00 in0.0 mm 0.00 in/hr0.0 mm/hr 0.00 in0.0 mm
07:00 PM 69.1°F20.6°C 64.1°F17.8°C 84% 0.6 mph SSE1.0 kmh SSE 2.2 mph3.5 kmh 29.86 in1011.2 mb 0.00 in0.0 mm 0.00 in/hr0.0 mm/hr 0.00 in0.0 mm
06:45 PM 63.1°F17.3°C 57.9°F14.4°C 83% 0.5 mph E0.8 kmh E 0.7 mph1.1 kmh 29.86 in1011.2 mb 0.00 in0.0 mm 0.00 in/hr0.0 mm/hr 0.00 in0.0 mm
06:30 PM 70.2°F21.2°C 64.4°F18.0°C 82% 1.1 mph WNW1.8 kmh WNW 3.1 mph5.0 kmh 29.85 in1010.8 mb 0.00 in0.0 mm 0.00 in/hr0.0 mm/hr 0.00 in0.0 mm
06:15 PM 70.3°F21.3°C 65.6°F18.7°C 85% 0.6 mph SE1.0 kmh SE 1.6 mph2.6 kmh 29.85 in1010.8 mb 0.00 in0.0 mm 0.00 in/hr0.0 mm/hr 0.00 in0.0 mm
06:00 PM 70.5°F21.4°C 65.5°F18.6°C 84% 1.2 mph SE1.9 kmh SE 2.2 mph3.5 kmh 29.84 in1010.5 mb 0.00 in0.0 mm 0.00 in/hr0.0 mm/hr 0.00 in0.0 mm
05:45 PM 76.6°F24.8°C 71.8°F22.1°C 85% 1.8 mph SE2.9 kmh SE 3.8 mph6.1 kmh 29.85 in1010.8 mb 0.00 in0.0 mm 0.00 in/hr0.0 mm/hr 0.00 in0.0 mm
05:30 PM 70.9°F21.6°C 65.8°F18.8°C 84% 3.1 mph S5.0 kmh S 5.4 mph8.7 kmh 29.84 in1010.5 mb 0.00 in0.0 mm 0.00 in/hr0.0 mm/hr 0.00 in0.0 mm
05:15 PM 71.2°F21.8°C 65.5°F18.6°C 82% 3.9 mph S6.3 kmh S 6.0 mph9.7 kmh 29.84 in1010.5 mb 0.00 in0.0 mm 0.00 in/hr0.0 mm/hr 0.00 in0.0 mm
05:00 PM 71.2°F21.8°C 66.5°F19.2°C 85% 3.5 mph SE5.6 kmh SE 6.0 mph9.7 kmh 29.85 in1010.8 mb 0.00 in0.0 mm 0.00 in/hr0.0 mm/hr 0.00 in0.0 mm
04:45 PM 70.0°F21.1°C 66.6°F19.2°C 89% 3.2 mph S5.1 kmh S 5.4 mph8.7 kmh 29.85 in1010.8 mb 0.00 in0.0 mm 0.00 in/hr0.0 mm/hr 0.00 in0.0 mm
04:30 PM 76.6°F24.8°C 72.9°F22.7°C 88% 4.3 mph NNW6.9 kmh NNW 7.6 mph12.2 kmh 29.85 in1010.8 mb 0.00 in0.0 mm 0.00 in/hr0.0 mm/hr 0.00 in0.0 mm
04:15 PM 70.7°F21.5°C 66.0°F18.9°C 85% 4.0 mph SE6.4 kmh SE 8.3 mph13.4 kmh 29.85 in1010.8 mb 0.00 in0.0 mm 0.00 in/hr0.0 mm/hr 0.00 in0.0 mm
04:00 PM 71.8°F22.1°C 67.1°F19.5°C 85% 5.8 mph S9.3 kmh S 9.2 mph14.8 kmh 29.85 in1010.8 mb 0.00 in0.0 mm 0.00 in/hr0.0 mm/hr 0.00 in0.0 mm
03:45 PM 72.0°F22.2°C 67.2°F19.6°C 85% 5.6 mph SSW9.0 kmh SSW 8.3 mph13.4 kmh 29.84 in1010.5 mb 0.00 in0.0 mm 0.00 in/hr0.0 mm/hr 0.00 in0.0 mm
03:30 PM 71.6°F22.0°C 66.2°F19.0°C 83% 6.3 mph S10.1 kmh S 9.2 mph14.8 kmh 29.86 in1011.2 mb 0.00 in0.0 mm 0.00 in/hr0.0 mm/hr 0.00 in0.0 mm
03:15 PM 71.4°F21.9°C 66.7°F19.3°C 85% 5.5 mph SSE8.9 kmh SSE 9.2 mph14.8 kmh 29.86 in1011.2 mb 0.00 in0.0 mm 0.00 in/hr0.0 mm/hr 0.00 in0.0 mm
03:00 PM 72.0°F22.2°C 66.6°F19.2°C 83% 5.4 mph SSE8.7 kmh SSE 7.6 mph12.2 kmh 29.86 in1011.2 mb 0.00 in0.0 mm 0.00 in/hr0.0 mm/hr 0.00 in0.0 mm
02:45 PM 67.5°F19.7°C 60.7°F15.9°C 79% 6.2 mph SSW10.0 kmh SSW 8.3 mph13.4 kmh 29.86 in1011.2 mb 0.00 in0.0 mm 0.00 in/hr0.0 mm/hr 0.00 in0.0 mm
02:30 PM 75.7°F24.3°C 67.3°F19.6°C 75% 6.0 mph SSW9.7 kmh SSW 8.3 mph13.4 kmh 29.86 in1011.2 mb 0.00 in0.0 mm 0.00 in/hr0.0 mm/hr 0.00 in0.0 mm
02:15 PM 76.1°F24.5°C 66.5°F19.2°C 72% 6.9 mph S11.1 kmh S 9.2 mph14.8 kmh 29.86 in1011.2 mb 0.00 in0.0 mm 0.00 in/hr0.0 mm/hr 0.00 in0.0 mm
02:00 PM 76.8°F24.9°C 66.3°F19.1°C 70% 5.4 mph S8.7 kmh S 6.9 mph11.1 kmh 29.86 in1011.2 mb 0.00 in0.0 mm 0.00 in/hr0.0 mm/hr 0.00 in0.0 mm
01:45 PM 76.8°F24.9°C 65.9°F18.8°C 69% 5.3 mph SSE8.5 kmh SSE 7.6 mph12.2 kmh 29.86 in1011.2 mb 0.00 in0.0 mm 0.00 in/hr0.0 mm/hr 0.00 in0.0 mm
01:30 PM 76.6°F24.8°C 66.6°F19.2°C 71% 4.5 mph SE7.2 kmh SE 8.3 mph13.4 kmh 29.86 in1011.2 mb 0.00 in0.0 mm 0.00 in/hr0.0 mm/hr 0.00 in0.0 mm
01:15 PM 77.2°F25.1°C 66.3°F19.1°C 69% 4.5 mph SSE7.2 kmh SSE 6.9 mph11.1 kmh 29.86 in1011.2 mb 0.00 in0.0 mm 0.00 in/hr0.0 mm/hr 0.00 in0.0 mm
01:00 PM 77.2°F25.1°C 67.1°F19.5°C 71% 3.6 mph SSE5.8 kmh SSE 5.4 mph8.7 kmh 29.86 in1011.2 mb 0.00 in0.0 mm 0.00 in/hr0.0 mm/hr 0.00 in0.0 mm
12:45 PM 77.7°F25.4°C 65.1°F18.4°C 65% 4.0 mph SSE6.4 kmh SSE 9.2 mph14.8 kmh 29.86 in1011.2 mb 0.00 in0.0 mm 0.00 in/hr0.0 mm/hr 0.00 in0.0 mm
12:30 PM 77.4°F25.2°C 64.3°F17.9°C 64% 4.5 mph S7.2 kmh S 7.6 mph12.2 kmh 29.86 in1011.2 mb 0.00 in0.0 mm 0.00 in/hr0.0 mm/hr 0.00 in0.0 mm
12:15 PM 77.0°F25.0°C 63.5°F17.5°C 63% 5.9 mph S9.5 kmh S 7.6 mph12.2 kmh 29.86 in1011.2 mb 0.00 in0.0 mm 0.00 in/hr0.0 mm/hr 0.00 in0.0 mm
12:00 PM 77.5°F25.3°C 62.6°F17.0°C 60% 5.6 mph S9.0 kmh S 9.8 mph15.8 kmh 29.86 in1011.2 mb 0.00 in0.0 mm 0.00 in/hr0.0 mm/hr 0.00 in0.0 mm
11:30 AM 76.5°F24.7°C 60.1°F15.6°C 57% 3.6 mph SSE5.8 kmh SSE 5.4 mph8.7 kmh 29.87 in1011.5 mb 0.00 in0.0 mm 0.00 in/hr0.0 mm/hr 0.00 in0.0 mm
11:15 AM 75.2°F24.0°C 61.8°F16.6°C 63% 4.5 mph S7.2 kmh S 9.8 mph15.8 kmh 29.87 in1011.5 mb 0.00 in0.0 mm 0.00 in/hr0.0 mm/hr 0.00 in0.0 mm
11:00 AM 75.4°F24.1°C 61.0°F16.1°C 61% 4.3 mph S6.9 kmh S 6.9 mph11.1 kmh 29.86 in1011.2 mb 0.00 in0.0 mm 0.00 in/hr0.0 mm/hr 0.00 in0.0 mm
10:45 AM 75.6°F24.2°C 62.6°F17.0°C 64% 3.8 mph SSE6.1 kmh SSE 6.0 mph9.7 kmh 29.86 in1011.2 mb 0.00 in0.0 mm 0.00 in/hr0.0 mm/hr 0.00 in0.0 mm
10:30 AM 74.8°F23.8°C 61.9°F16.6°C 64% 3.7 mph S6.0 kmh S 6.0 mph9.7 kmh 29.86 in1011.2 mb 0.00 in0.0 mm 0.00 in/hr0.0 mm/hr 0.00 in0.0 mm
10:15 AM 73.8°F23.2°C 62.2°F16.8°C 67% 3.3 mph SE5.3 kmh SE 6.9 mph11.1 kmh 29.86 in1011.2 mb 0.00 in0.0 mm 0.00 in/hr0.0 mm/hr 0.00 in0.0 mm
10:00 AM 73.0°F22.8°C 63.1°F17.3°C 71% 3.3 mph SSE5.3 kmh SSE 5.4 mph8.7 kmh 29.86 in1011.2 mb 0.00 in0.0 mm 0.00 in/hr0.0 mm/hr 0.00 in0.0 mm
09:45 AM 72.3°F22.4°C 62.8°F17.1°C 72% 4.4 mph SE7.1 kmh SE 7.6 mph12.2 kmh 29.86 in1011.2 mb 0.00 in0.0 mm 0.00 in/hr0.0 mm/hr 0.00 in0.0 mm
09:30 AM 72.1°F22.3°C 62.6°F17.0°C 72% 3.7 mph SE6.0 kmh SE 5.4 mph8.7 kmh 29.86 in1011.2 mb 0.00 in0.0 mm 0.00 in/hr0.0 mm/hr 0.00 in0.0 mm
09:15 AM 71.1°F21.7°C 62.0°F16.7°C 73% 4.2 mph SE6.8 kmh SE 7.6 mph12.2 kmh 29.86 in1011.2 mb 0.00 in0.0 mm 0.00 in/hr0.0 mm/hr 0.00 in0.0 mm
09:00 AM 71.1°F21.7°C 61.6°F16.4°C 72% 3.4 mph S5.5 kmh S 5.4 mph8.7 kmh 29.85 in1010.8 mb 0.00 in0.0 mm 0.00 in/hr0.0 mm/hr 0.00 in0.0 mm
08:45 AM 75.7°F24.3°C 67.3°F19.6°C 75% 3.4 mph S5.5 kmh S 6.0 mph9.7 kmh 29.86 in1011.2 mb 0.00 in0.0 mm 0.00 in/hr0.0 mm/hr 0.00 in0.0 mm
08:30 AM 75.4°F24.1°C 66.6°F19.2°C 74% 3.6 mph S5.8 kmh S 6.0 mph9.7 kmh 29.85 in1010.8 mb 0.00 in0.0 mm 0.00 in/hr0.0 mm/hr 0.00 in0.0 mm
08:15 AM 70.3°F21.3°C 62.1°F16.7°C 75% 3.2 mph SE5.1 kmh SE 6.0 mph9.7 kmh 29.84 in1010.5 mb 0.00 in0.0 mm 0.00 in/hr0.0 mm/hr 0.00 in0.0 mm
08:00 AM 70.2°F21.2°C 60.3°F15.7°C 71% 3.1 mph S5.0 kmh S 4.5 mph7.2 kmh 29.85 in1010.8 mb 0.00 in0.0 mm 0.00 in/hr0.0 mm/hr 0.00 in0.0 mm
07:45 AM 69.8°F21.0°C 60.0°F15.6°C 71% 3.0 mph S4.8 kmh S 7.6 mph12.2 kmh 29.84 in1010.5 mb 0.00 in0.0 mm 0.00 in/hr0.0 mm/hr 0.00 in0.0 mm
07:30 AM 68.7°F20.4°C 59.7°F15.4°C 73% 4.0 mph SW6.4 kmh SW 4.5 mph7.2 kmh 29.84 in1010.5 mb 0.00 in0.0 mm 0.00 in/hr0.0 mm/hr 0.00 in0.0 mm
07:15 AM 67.1°F19.5°C 61.8°F16.6°C 83% 2.8 mph S4.5 kmh S 4.5 mph7.2 kmh 29.84 in1010.5 mb 0.00 in0.0 mm 0.00 in/hr0.0 mm/hr 0.00 in0.0 mm
07:00 AM 60.1°F15.6°C 58.1°F14.5°C 93% 0.8 mph WNW1.3 kmh WNW 1.6 mph2.6 kmh 29.83 in1010.2 mb 0.00 in0.0 mm 0.00 in/hr0.0 mm/hr 0.00 in0.0 mm
06:45 AM 63.7°F17.6°C 63.7°F17.6°C 100% 0.7 mph NNW1.1 kmh NNW 1.6 mph2.6 kmh 29.83 in1010.2 mb 0.00 in0.0 mm 0.00 in/hr0.0 mm/hr 0.00 in0.0 mm
06:30 AM 63.7°F17.6°C 63.4°F17.4°C 99% 1.8 mph SW2.9 kmh SW 3.8 mph6.1 kmh 29.83 in1010.2 mb 0.00 in0.0 mm 0.00 in/hr0.0 mm/hr 0.00 in0.0 mm
06:15 AM 63.5°F17.5°C 63.2°F17.3°C 99% 2.0 mph WSW3.2 kmh WSW 3.1 mph5.0 kmh 29.83 in1010.2 mb 0.00 in0.0 mm 0.00 in/hr0.0 mm/hr 0.00 in0.0 mm
06:00 AM 63.3°F17.4°C 63.1°F17.3°C 99% 2.8 mph WSW4.5 kmh WSW 3.8 mph6.1 kmh 29.82 in1009.8 mb 0.00 in0.0 mm 0.00 in/hr0.0 mm/hr 0.00 in0.0 mm
05:45 AM 62.6°F17.0°C 62.3°F16.8°C 99% 2.7 mph S4.3 kmh S 4.5 mph7.2 kmh 29.82 in1009.8 mb 0.00 in0.0 mm 0.00 in/hr0.0 mm/hr 0.00 in0.0 mm
05:30 AM 62.4°F16.9°C 62.2°F16.8°C 99% 1.1 mph SW1.8 kmh SW 3.8 mph6.1 kmh 29.83 in1010.2 mb 0.00 in0.0 mm 0.00 in/hr0.0 mm/hr 0.00 in0.0 mm
05:15 AM 62.4°F16.9°C 62.2°F16.8°C 99% 2.0 mph WSW3.2 kmh WSW 3.1 mph5.0 kmh 29.82 in1009.8 mb 0.00 in0.0 mm 0.00 in/hr0.0 mm/hr 0.00 in0.0 mm
05:00 AM 62.1°F16.7°C 61.8°F16.6°C 99% 1.7 mph WSW2.7 kmh WSW 2.2 mph3.5 kmh 29.82 in1009.8 mb 0.00 in0.0 mm 0.00 in/hr0.0 mm/hr 0.00 in0.0 mm
04:45 AM 61.3°F16.3°C 61.1°F16.2°C 99% 1.9 mph SW3.1 kmh SW 3.1 mph5.0 kmh 29.82 in1009.8 mb 0.00 in0.0 mm 0.00 in/hr0.0 mm/hr 0.00 in0.0 mm
04:30 AM 60.6°F15.9°C 60.4°F15.8°C 99% 0.5 mph WSW0.8 kmh WSW 2.2 mph3.5 kmh 29.82 in1009.8 mb 0.00 in0.0 mm 0.00 in/hr0.0 mm/hr 0.00 in0.0 mm
04:15 AM 60.4°F15.8°C 60.2°F15.7°C 99% Calm Calm -- 29.82 in1009.8 mb 0.00 in0.0 mm 0.00 in/hr0.0 mm/hr 0.00 in0.0 mm
04:00 AM 60.1°F15.6°C 59.8°F15.4°C 99% Calm Calm -- 29.82 in1009.8 mb 0.00 in0.0 mm 0.00 in/hr0.0 mm/hr 0.00 in0.0 mm
03:45 AM 60.3°F15.7°C 60.0°F15.6°C 99% Calm Calm -- 29.81 in1009.5 mb 0.00 in0.0 mm 0.00 in/hr0.0 mm/hr 0.00 in0.0 mm
03:30 AM 60.3°F15.7°C 60.0°F15.6°C 99% Calm Calm -- 29.81 in1009.5 mb 0.00 in0.0 mm 0.00 in/hr0.0 mm/hr 0.00 in0.0 mm
03:15 AM 60.4°F15.8°C 60.2°F15.7°C 99% Calm Calm -- 29.80 in1009.1 mb 0.00 in0.0 mm 0.00 in/hr0.0 mm/hr 0.00 in0.0 mm
03:00 AM 60.3°F15.7°C 60.0°F15.6°C 99% Calm Calm -- 29.80 in1009.1 mb 0.00 in0.0 mm 0.00 in/hr0.0 mm/hr 0.00 in0.0 mm
02:45 AM 60.3°F15.7°C 60.0°F15.6°C 99% Calm Calm -- 29.81 in1009.5 mb 0.00 in0.0 mm 0.00 in/hr0.0 mm/hr 0.00 in0.0 mm
02:30 AM 60.4°F15.8°C 60.2°F15.7°C 99% Calm Calm -- 29.80 in1009.1 mb 0.00 in0.0 mm 0.00 in/hr0.0 mm/hr 0.00 in0.0 mm
02:15 AM 60.4°F15.8°C 60.2°F15.7°C 99% Calm Calm -- 29.81 in1009.5 mb 0.00 in0.0 mm 0.00 in/hr0.0 mm/hr 0.00 in0.0 mm
02:00 AM 60.4°F15.8°C 60.2°F15.7°C 99% Calm Calm -- 29.81 in1009.5 mb 0.00 in0.0 mm 0.00 in/hr0.0 mm/hr 0.00 in0.0 mm
01:45 AM 60.6°F15.9°C 60.4°F15.8°C 99% Calm Calm -- 29.81 in1009.5 mb 0.00 in0.0 mm 0.00 in/hr0.0 mm/hr 0.00 in0.0 mm
01:30 AM 60.6°F15.9°C 60.4°F15.8°C 99% Calm Calm -- 29.81 in1009.5 mb 0.00 in0.0 mm 0.00 in/hr0.0 mm/hr 0.00 in0.0 mm
01:15 AM 60.8°F16.0°C 60.5°F15.8°C 99% Calm Calm -- 29.81 in1009.5 mb 0.00 in0.0 mm 0.00 in/hr0.0 mm/hr 0.00 in0.0 mm
01:00 AM 61.0°F16.1°C 60.7°F15.9°C 99% Calm Calm -- 29.82 in1009.8 mb 0.00 in0.0 mm 0.00 in/hr0.0 mm/hr 0.00 in0.0 mm
12:45 AM 61.0°F16.1°C 60.7°F15.9°C 99% Calm Calm -- 29.82 in1009.8 mb 0.00 in0.0 mm 0.00 in/hr0.0 mm/hr 0.00 in0.0 mm
12:30 AM 61.0°F16.1°C 60.7°F15.9°C 99% 0.1 mph NW0.2 kmh NW 0.7 mph1.1 kmh 29.83 in1010.2 mb 0.00 in0.0 mm 0.00 in/hr0.0 mm/hr 0.00 in0.0 mm
12:15 AM 61.2°F16.2°C 60.9°F16.1°C 99% 1.0 mph N1.6 kmh N 2.2 mph3.5 kmh 29.83 in1010.2 mb 0.00 in0.0 mm 0.00 in/hr0.0 mm/hr 0.00 in0.0 mm
12:00 AM 61.2°F16.2°C 60.9°F16.1°C 99% 0.8 mph N1.3 kmh N 2.2 mph3.5 kmh 29.83 in1010.2 mb 0.00 in0.0 mm 0.00 in/hr0.0 mm/hr 0.00 in0.0 mm